Terminal Aerodrome Forecast
Issued by NWS

Home | Current Version | Previous Version | Text Only | Print | Product List | Glossary Off
Versions: 1 2 3 4 5 6 7 8 9 10 11 12 13 14 15 16 17 18 19 20 21 22 23

000
FTUS43 KABR 260321 AAA
TAFMBG
TAF AMD
KMBG 260321Z 2603/2624 12006KT P6SM VCTS SCT100CB
     FM261400 14008KT P6SM SCT250
     FM261700 11010KT P6SM SCT250=

USA.gov is the U.S. government's official web portal to all federal, state and local government web resources and services.